sensor_id;sensor_type;location;lat;lon;timestamp;temperature;humidity
34815;DHT22;21030;53.912;15.214;2022-11-25T00:03:35;31.90;22.00
34815;DHT22;21030;53.912;15.214;2022-11-25T00:06:15;31.80;21.80
34815;DHT22;21030;53.912;15.214;2022-11-25T00:08:44;31.90;22.00
34815;DHT22;21030;53.912;15.214;2022-11-25T00:11:12;32.00;21.80
34815;DHT22;21030;53.912;15.214;2022-11-25T00:13:40;32.20;21.80
34815;DHT22;21030;53.912;15.214;2022-11-25T00:16:10;32.20;21.60
34815;DHT22;21030;53.912;15.214;2022-11-25T00:18:38;31.90;22.00
34815;DHT22;21030;53.912;15.214;2022-11-25T00:21:07;31.80;22.00
34815;DHT22;21030;53.912;15.214;2022-11-25T00:23:36;31.70;21.80
34815;DHT22;21030;53.912;15.214;2022-11-25T00:26:16;31.80;21.90
34815;DHT22;21030;53.912;15.214;2022-11-25T00:28:45;31.40;21.90
34815;DHT22;21030;53.912;15.214;2022-11-25T00:31:18;31.40;22.00
34815;DHT22;21030;53.912;15.214;2022-11-25T00:33:46;31.90;22.00
34815;DHT22;21030;53.912;15.214;2022-11-25T00:36:20;31.80;21.80
34815;DHT22;21030;53.912;15.214;2022-11-25T00:38:55;31.20;21.80
34815;DHT22;21030;53.912;15.214;2022-11-25T00:41:22;31.30;22.10
34815;DHT22;21030;53.912;15.214;2022-11-25T00:44:10;31.40;22.30
34815;DHT22;21030;53.912;15.214;2022-11-25T00:46:55;31.70;22.20
34815;DHT22;21030;53.912;15.214;2022-11-25T00:49:23;31.50;22.30
34815;DHT22;21030;53.912;15.214;2022-11-25T00:51:50;31.30;22.00
34815;DHT22;21030;53.912;15.214;2022-11-25T00:54:17;31.10;22.20
34815;DHT22;21030;53.912;15.214;2022-11-25T00:56:44;31.20;22.40
34815;DHT22;21030;53.912;15.214;2022-11-25T00:59:11;31.20;22.40
34815;DHT22;21030;53.912;15.214;2022-11-25T01:01:38;30.80;22.50
34815;DHT22;21030;53.912;15.214;2022-11-25T01:04:05;30.70;22.60
34815;DHT22;21030;53.912;15.214;2022-11-25T01:06:34;30.00;22.50
34815;DHT22;21030;53.912;15.214;2022-11-25T01:09:01;29.50;23.10
34815;DHT22;21030;53.912;15.214;2022-11-25T01:11:28;29.90;23.40
34815;DHT22;21030;53.912;15.214;2022-11-25T01:13:55;30.40;23.00
34815;DHT22;21030;53.912;15.214;2022-11-25T01:16:28;30.80;22.60
34815;DHT22;21030;53.912;15.214;2022-11-25T01:18:59;30.50;22.50
34815;DHT22;21030;53.912;15.214;2022-11-25T01:21:29;30.60;22.70
34815;DHT22;21030;53.912;15.214;2022-11-25T01:24:01;30.70;22.60
34815;DHT22;21030;53.912;15.214;2022-11-25T01:26:29;30.20;22.60
34815;DHT22;21030;53.912;15.214;2022-11-25T01:28:58;30.40;22.80
34815;DHT22;21030;53.912;15.214;2022-11-25T01:31:28;30.20;22.90
34815;DHT22;21030;53.912;15.214;2022-11-25T01:34:02;30.70;22.80
34815;DHT22;21030;53.912;15.214;2022-11-25T01:36:29;30.80;22.60
34815;DHT22;21030;53.912;15.214;2022-11-25T01:38:58;30.50;22.90
34815;DHT22;21030;53.912;15.214;2022-11-25T01:41:28;30.70;22.80
34815;DHT22;21030;53.912;15.214;2022-11-25T01:44:16;30.70;22.60
34815;DHT22;21030;53.912;15.214;2022-11-25T01:47:11;31.20;22.40
34815;DHT22;21030;53.912;15.214;2022-11-25T01:49:45;30.90;22.20
34815;DHT22;21030;53.912;15.214;2022-11-25T01:52:19;31.00;22.40
34815;DHT22;21030;53.912;15.214;2022-11-25T01:55:13;30.90;22.30
34815;DHT22;21030;53.912;15.214;2022-11-25T02:00:12;31.30;22.10
34815;DHT22;21030;53.912;15.214;2022-11-25T02:02:39;31.20;22.00
34815;DHT22;21030;53.912;15.214;2022-11-25T02:05:08;31.50;22.00
34815;DHT22;21030;53.912;15.214;2022-11-25T02:07:38;31.50;21.90
34815;DHT22;21030;53.912;15.214;2022-11-25T02:10:10;31.70;21.90
34815;DHT22;21030;53.912;15.214;2022-11-25T02:12:40;31.80;21.70
34815;DHT22;21030;53.912;15.214;2022-11-25T02:15:09;32.10;21.60
34815;DHT22;21030;53.912;15.214;2022-11-25T02:17:36;32.30;21.50
34815;DHT22;21030;53.912;15.214;2022-11-25T02:25:26;31.80;21.60
34815;DHT22;21030;53.912;15.214;2022-11-25T02:28:00;32.00;21.60
34815;DHT22;21030;53.912;15.214;2022-11-25T02:30:28;31.30;21.80
34815;DHT22;21030;53.912;15.214;2022-11-25T02:32:57;31.60;21.80
34815;DHT22;21030;53.912;15.214;2022-11-25T02:37:53;31.60;21.90
34815;DHT22;21030;53.912;15.214;2022-11-25T02:40:21;31.80;21.80
34815;DHT22;21030;53.912;15.214;2022-11-25T02:42:49;31.90;21.60
34815;DHT22;21030;53.912;15.214;2022-11-25T02:45:19;32.20;21.50
34815;DHT22;21030;53.912;15.214;2022-11-25T02:47:48;32.20;21.50
34815;DHT22;21030;53.912;15.214;2022-11-25T02:50:15;32.20;21.50
34815;DHT22;21030;53.912;15.214;2022-11-25T02:52:42;32.20;21.40
34815;DHT22;21030;53.912;15.214;2022-11-25T02:55:10;32.30;21.30
34815;DHT22;21030;53.912;15.214;2022-11-25T02:57:37;32.40;21.40
34815;DHT22;21030;53.912;15.214;2022-11-25T03:00:05;32.30;21.40
34815;DHT22;21030;53.912;15.214;2022-11-25T03:02:32;32.10;21.60
34815;DHT22;21030;53.912;15.214;2022-11-25T03:04:59;32.20;21.50
34815;DHT22;21030;53.912;15.214;2022-11-25T03:07:26;32.20;21.30
34815;DHT22;21030;53.912;15.214;2022-11-25T03:09:53;32.10;21.50
34815;DHT22;21030;53.912;15.214;2022-11-25T03:12:20;32.10;21.60
34815;DHT22;21030;53.912;15.214;2022-11-25T03:14:47;32.10;21.60
34815;DHT22;21030;53.912;15.214;2022-11-25T03:17:14;31.90;21.60
34815;DHT22;21030;53.912;15.214;2022-11-25T03:19:41;31.40;21.80
34815;DHT22;21030;53.912;15.214;2022-11-25T03:22:08;31.50;21.90
34815;DHT22;21030;53.912;15.214;2022-11-25T03:24:35;31.60;22.20
34815;DHT22;21030;53.912;15.214;2022-11-25T03:27:08;31.50;22.00
34815;DHT22;21030;53.912;15.214;2022-11-25T03:29:35;31.40;21.90
34815;DHT22;21030;53.912;15.214;2022-11-25T03:32:02;31.70;21.90
34815;DHT22;21030;53.912;15.214;2022-11-25T03:34:35;31.90;21.80
34815;DHT22;21030;53.912;15.214;2022-11-25T03:37:02;32.10;21.60
34815;DHT22;21030;53.912;15.214;2022-11-25T03:39:29;32.30;21.60
34815;DHT22;21030;53.912;15.214;2022-11-25T03:41:56;32.50;21.40
34815;DHT22;21030;53.912;15.214;2022-11-25T03:44:23;32.20;21.30
34815;DHT22;21030;53.912;15.214;2022-11-25T03:46:50;31.30;21.70
34815;DHT22;21030;53.912;15.214;2022-11-25T03:49:17;31.10;22.20
34815;DHT22;21030;53.912;15.214;2022-11-25T03:51:44;31.00;22.50
34815;DHT22;21030;53.912;15.214;2022-11-25T03:54:11;31.40;22.30
34815;DHT22;21030;53.912;15.214;2022-11-25T03:56:38;31.40;22.20
34815;DHT22;21030;53.912;15.214;2022-11-25T03:59:05;31.50;22.20
34815;DHT22;21030;53.912;15.214;2022-11-25T04:01:32;31.70;22.10
34815;DHT22;21030;53.912;15.214;2022-11-25T04:03:59;31.30;22.00
34815;DHT22;21030;53.912;15.214;2022-11-25T04:06:26;31.60;22.10
34815;DHT22;21030;53.912;15.214;2022-11-25T04:08:52;31.70;21.90
34815;DHT22;21030;53.912;15.214;2022-11-25T04:11:20;31.90;21.80
34815;DHT22;21030;53.912;15.214;2022-11-25T04:13:46;31.70;21.60
34815;DHT22;21030;53.912;15.214;2022-11-25T04:16:24;31.90;21.80
34815;DHT22;21030;53.912;15.214;2022-11-25T04:18:51;32.00;21.80
34815;DHT22;21030;53.912;15.214;2022-11-25T04:21:18;32.20;21.70
34815;DHT22;21030;53.912;15.214;2022-11-25T04:23:45;32.30;21.50
34815;DHT22;21030;53.912;15.214;2022-11-25T04:26:12;32.50;21.30
34815;DHT22;21030;53.912;15.214;2022-11-25T04:28:39;32.60;21.20
34815;DHT22;21030;53.912;15.214;2022-11-25T04:31:07;32.70;21.20
34815;DHT22;21030;53.912;15.214;2022-11-25T04:33:34;32.80;21.20
34815;DHT22;21030;53.912;15.214;2022-11-25T04:36:01;32.70;21.20
34815;DHT22;21030;53.912;15.214;2022-11-25T04:38:28;32.70;21.30
34815;DHT22;21030;53.912;15.214;2022-11-25T04:40:55;32.50;21.30
34815;DHT22;21030;53.912;15.214;2022-11-25T04:43:22;32.30;21.30
34815;DHT22;21030;53.912;15.214;2022-11-25T04:45:49;32.40;21.50
34815;DHT22;21030;53.912;15.214;2022-11-25T04:48:38;32.30;21.30
34815;DHT22;21030;53.912;15.214;2022-11-25T04:51:05;32.40;21.40
34815;DHT22;21030;53.912;15.214;2022-11-25T04:53:32;32.40;21.30
34815;DHT22;21030;53.912;15.214;2022-11-25T04:55:59;32.60;21.20
34815;DHT22;21030;53.912;15.214;2022-11-25T04:58:26;32.70;21.20
34815;DHT22;21030;53.912;15.214;2022-11-25T05:01:11;32.50;21.10
34815;DHT22;21030;53.912;15.214;2022-11-25T05:03:38;32.70;21.30
34815;DHT22;21030;53.912;15.214;2022-11-25T05:06:13;32.60;21.20
34815;DHT22;21030;53.912;15.214;2022-11-25T05:08:40;32.50;21.20
34815;DHT22;21030;53.912;15.214;2022-11-25T05:11:07;32.30;21.50
34815;DHT22;21030;53.912;15.214;2022-11-25T05:13:34;32.10;21.50
34815;DHT22;21030;53.912;15.214;2022-11-25T05:16:01;32.10;21.60
34815;DHT22;21030;53.912;15.214;2022-11-25T05:18:28;31.80;21.80
34815;DHT22;21030;53.912;15.214;2022-11-25T05:21:00;31.90;22.00
34815;DHT22;21030;53.912;15.214;2022-11-25T05:23:27;32.10;21.80
34815;DHT22;21030;53.912;15.214;2022-11-25T05:26:02;31.80;21.70
34815;DHT22;21030;53.912;15.214;2022-11-25T05:28:30;31.90;21.90
34815;DHT22;21030;53.912;15.214;2022-11-25T05:30:57;32.10;21.80
34815;DHT22;21030;53.912;15.214;2022-11-25T05:33:24;32.30;21.70
34815;DHT22;21030;53.912;15.214;2022-11-25T05:35:59;32.50;21.50
34815;DHT22;21030;53.912;15.214;2022-11-25T05:38:27;32.60;21.40
34815;DHT22;21030;53.912;15.214;2022-11-25T05:41:00;32.50;21.80
34815;DHT22;21030;53.912;15.214;2022-11-25T05:43:27;32.50;21.40
34815;DHT22;21030;53.912;15.214;2022-11-25T05:45:54;32.50;21.40
34815;DHT22;21030;53.912;15.214;2022-11-25T05:48:21;32.50;21.40
34815;DHT22;21030;53.912;15.214;2022-11-25T05:50:48;32.30;21.40
34815;DHT22;21030;53.912;15.214;2022-11-25T05:53:15;32.00;21.80
34815;DHT22;21030;53.912;15.214;2022-11-25T05:55:53;31.40;22.20
34815;DHT22;21030;53.912;15.214;2022-11-25T05:58:21;31.60;22.20
34815;DHT22;21030;53.912;15.214;2022-11-25T06:00:49;31.70;22.00
34815;DHT22;21030;53.912;15.214;2022-11-25T06:03:16;31.40;22.00
34815;DHT22;21030;53.912;15.214;2022-11-25T06:05:44;31.20;22.80
34815;DHT22;21030;53.912;15.214;2022-11-25T06:08:10;31.40;22.30
34815;DHT22;21030;53.912;15.214;2022-11-25T06:10:38;31.60;22.20
34815;DHT22;21030;53.912;15.214;2022-11-25T06:13:07;31.70;22.00
34815;DHT22;21030;53.912;15.214;2022-11-25T06:15:40;31.80;22.00
34815;DHT22;21030;53.912;15.214;2022-11-25T06:18:09;31.50;22.10
34815;DHT22;21030;53.912;15.214;2022-11-25T06:20:37;31.10;22.20
34815;DHT22;21030;53.912;15.214;2022-11-25T06:23:04;30.60;22.80
34815;DHT22;21030;53.912;15.214;2022-11-25T06:25:32;30.30;22.90
34815;DHT22;21030;53.912;15.214;2022-11-25T06:28:01;30.60;23.00
34815;DHT22;21030;53.912;15.214;2022-11-25T06:30:44;30.80;22.80
34815;DHT22;21030;53.912;15.214;2022-11-25T06:33:11;30.70;22.70
34815;DHT22;21030;53.912;15.214;2022-11-25T06:35:38;30.80;22.70
34815;DHT22;21030;53.912;15.214;2022-11-25T06:38:05;30.50;22.90
34815;DHT22;21030;53.912;15.214;2022-11-25T06:40:32;30.40;23.00
34815;DHT22;21030;53.912;15.214;2022-11-25T06:42:59;30.50;23.00
34815;DHT22;21030;53.912;15.214;2022-11-25T06:45:26;30.20;23.10
34815;DHT22;21030;53.912;15.214;2022-11-25T06:47:53;30.50;23.10
34815;DHT22;21030;53.912;15.214;2022-11-25T06:50:20;30.80;22.80
34815;DHT22;21030;53.912;15.214;2022-11-25T06:52:47;31.50;22.40
34815;DHT22;21030;53.912;15.214;2022-11-25T06:55:14;31.70;22.20
34815;DHT22;21030;53.912;15.214;2022-11-25T06:57:41;31.90;22.00
34815;DHT22;21030;53.912;15.214;2022-11-25T07:00:09;31.90;21.90
34815;DHT22;21030;53.912;15.214;2022-11-25T07:02:36;31.50;22.00
34815;DHT22;21030;53.912;15.214;2022-11-25T07:05:09;31.70;22.10
34815;DHT22;21030;53.912;15.214;2022-11-25T07:07:36;31.50;22.10
34815;DHT22;21030;53.912;15.214;2022-11-25T07:10:04;31.60;22.10
34815;DHT22;21030;53.912;15.214;2022-11-25T07:12:31;31.90;21.90
34815;DHT22;21030;53.912;15.214;2022-11-25T07:14:58;31.90;21.70
34815;DHT22;21030;53.912;15.214;2022-11-25T07:17:25;32.10;21.80
34815;DHT22;21030;53.912;15.214;2022-11-25T07:19:52;32.20;21.70
34815;DHT22;21030;53.912;15.214;2022-11-25T07:22:19;32.10;21.70
34815;DHT22;21030;53.912;15.214;2022-11-25T07:24:46;32.40;21.60
34815;DHT22;21030;53.912;15.214;2022-11-25T07:27:13;32.30;21.50
34815;DHT22;21030;53.912;15.214;2022-11-25T07:29:40;32.30;21.60
34815;DHT22;21030;53.912;15.214;2022-11-25T07:32:27;32.30;21.30
34815;DHT22;21030;53.912;15.214;2022-11-25T07:34:53;32.30;21.60
34815;DHT22;21030;53.912;15.214;2022-11-25T07:37:20;32.50;21.60
34815;DHT22;21030;53.912;15.214;2022-11-25T07:39:47;32.70;22.00
34815;DHT22;21030;53.912;15.214;2022-11-25T07:42:14;32.70;21.30
34815;DHT22;21030;53.912;15.214;2022-11-25T07:44:41;32.70;21.30
34815;DHT22;21030;53.912;15.214;2022-11-25T07:47:08;32.40;21.50
34815;DHT22;21030;53.912;15.214;2022-11-25T07:49:35;32.30;21.40
34815;DHT22;21030;53.912;15.214;2022-11-25T07:52:02;32.40;21.60
34815;DHT22;21030;53.912;15.214;2022-11-25T07:54:30;32.60;21.50
34815;DHT22;21030;53.912;15.214;2022-11-25T07:56:58;32.70;21.40
34815;DHT22;21030;53.912;15.214;2022-11-25T07:59:25;32.70;21.60
34815;DHT22;21030;53.912;15.214;2022-11-25T08:01:54;32.60;21.50
34815;DHT22;21030;53.912;15.214;2022-11-25T08:04:21;32.50;21.40
34815;DHT22;21030;53.912;15.214;2022-11-25T08:06:50;32.40;21.40
34815;DHT22;21030;53.912;15.214;2022-11-25T08:09:20;32.60;21.60
34815;DHT22;21030;53.912;15.214;2022-11-25T08:11:47;32.10;21.40
34815;DHT22;21030;53.912;15.214;2022-11-25T08:14:15;31.70;22.00
34815;DHT22;21030;53.912;15.214;2022-11-25T08:16:42;32.10;21.80
34815;DHT22;21030;53.912;15.214;2022-11-25T08:19:13;32.60;21.60
34815;DHT22;21030;53.912;15.214;2022-11-25T08:21:40;32.50;21.70
34815;DHT22;21030;53.912;15.214;2022-11-25T08:24:12;32.60;21.60
34815;DHT22;21030;53.912;15.214;2022-11-25T08:26:41;32.80;21.70
34815;DHT22;21030;53.912;15.214;2022-11-25T08:29:14;32.70;21.60
34815;DHT22;21030;53.912;15.214;2022-11-25T08:31:41;32.40;21.80
34815;DHT22;21030;53.912;15.214;2022-11-25T08:34:19;32.80;21.60
34815;DHT22;21030;53.912;15.214;2022-11-25T08:36:46;33.00;21.40
34815;DHT22;21030;53.912;15.214;2022-11-25T08:39:15;33.30;21.50
34815;DHT22;21030;53.912;15.214;2022-11-25T08:42:04;33.30;21.30
34815;DHT22;21030;53.912;15.214;2022-11-25T08:44:31;33.30;21.20
34815;DHT22;21030;53.912;15.214;2022-11-25T08:46:59;33.30;21.10
34815;DHT22;21030;53.912;15.214;2022-11-25T08:49:26;33.40;21.10
34815;DHT22;21030;53.912;15.214;2022-11-25T08:52:04;33.30;21.10
34815;DHT22;21030;53.912;15.214;2022-11-25T08:54:31;33.50;21.10
34815;DHT22;21030;53.912;15.214;2022-11-25T08:56:58;33.60;21.00
34815;DHT22;21030;53.912;15.214;2022-11-25T08:59:26;33.90;20.80
34815;DHT22;21030;53.912;15.214;2022-11-25T09:01:53;33.60;20.90
34815;DHT22;21030;53.912;15.214;2022-11-25T09:04:21;33.20;21.20
34815;DHT22;21030;53.912;15.214;2022-11-25T09:06:48;33.10;21.20
34815;DHT22;21030;53.912;15.214;2022-11-25T09:09:15;33.50;21.20
34815;DHT22;21030;53.912;15.214;2022-11-25T09:11:42;33.80;20.80
34815;DHT22;21030;53.912;15.214;2022-11-25T09:14:09;34.10;20.70
34815;DHT22;21030;53.912;15.214;2022-11-25T09:16:36;33.80;20.70
34815;DHT22;21030;53.912;15.214;2022-11-25T09:19:03;33.20;20.90
34815;DHT22;21030;53.912;15.214;2022-11-25T09:21:30;32.90;21.00
34815;DHT22;21030;53.912;15.214;2022-11-25T09:23:58;33.00;21.20
34815;DHT22;21030;53.912;15.214;2022-11-25T09:26:27;33.30;21.20
34815;DHT22;21030;53.912;15.214;2022-11-25T09:28:55;33.70;21.00
34815;DHT22;21030;53.912;15.214;2022-11-25T09:31:22;34.00;20.80
34815;DHT22;21030;53.912;15.214;2022-11-25T09:33:50;34.00;20.70
34815;DHT22;21030;53.912;15.214;2022-11-25T09:36:18;34.20;20.60
34815;DHT22;21030;53.912;15.214;2022-11-25T09:38:46;34.40;20.50
34815;DHT22;21030;53.912;15.214;2022-11-25T09:56:40;36.50;19.70
34815;DHT22;21030;53.912;15.214;2022-11-25T09:59:30;37.10;19.00
34815;DHT22;21030;53.912;15.214;2022-11-25T10:02:02;36.80;18.70
34815;DHT22;21030;53.912;15.214;2022-11-25T10:04:36;36.70;19.00
34815;DHT22;21030;53.912;15.214;2022-11-25T10:07:16;36.60;19.20
34815;DHT22;21030;53.912;15.214;2022-11-25T10:09:44;36.20;19.20
34815;DHT22;21030;53.912;15.214;2022-11-25T10:12:46;35.90;19.50
34815;DHT22;21030;53.912;15.214;2022-11-25T10:17:56;37.10;18.80
34815;DHT22;21030;53.912;15.214;2022-11-25T10:20:30;37.30;18.60
34815;DHT22;21030;53.912;15.214;2022-11-25T10:23:15;37.30;18.60
34815;DHT22;21030;53.912;15.214;2022-11-25T10:25:54;37.00;18.70
34815;DHT22;21030;53.912;15.214;2022-11-25T10:28:27;36.80;18.90
34815;DHT22;21030;53.912;15.214;2022-11-25T10:31:18;36.30;18.90
34815;DHT22;21030;53.912;15.214;2022-11-25T10:33:50;36.20;19.00
34815;DHT22;21030;53.912;15.214;2022-11-25T10:36:30;35.90;19.30
34815;DHT22;21030;53.912;15.214;2022-11-25T10:39:18;35.90;19.40
34815;DHT22;21030;53.912;15.214;2022-11-25T10:41:57;35.80;19.20
34815;DHT22;21030;53.912;15.214;2022-11-25T10:44:27;36.00;19.30
34815;DHT22;21030;53.912;15.214;2022-11-25T10:52:28;35.00;20.10
34815;DHT22;21030;53.912;15.214;2022-11-25T10:55:22;35.10;20.60
34815;DHT22;21030;53.912;15.214;2022-11-25T10:57:52;35.40;19.80
34815;DHT22;21030;53.912;15.214;2022-11-25T11:02:53;35.50;19.60
34815;DHT22;21030;53.912;15.214;2022-11-25T11:05:26;34.80;19.90
34815;DHT22;21030;53.912;15.214;2022-11-25T11:08:15;34.70;20.10
34815;DHT22;21030;53.912;15.214;2022-11-25T11:10:44;34.20;20.10
34815;DHT22;21030;53.912;15.214;2022-11-25T11:13:23;34.70;20.20
34815;DHT22;21030;53.912;15.214;2022-11-25T11:15:52;35.10;20.30
34815;DHT22;21030;53.912;15.214;2022-11-25T11:18:39;35.30;20.10
34815;DHT22;21030;53.912;15.214;2022-11-25T11:21:36;35.20;19.90
34815;DHT22;21030;53.912;15.214;2022-11-25T11:27:01;35.00;20.10
34815;DHT22;21030;53.912;15.214;2022-11-25T11:29:29;34.90;20.00
34815;DHT22;21030;53.912;15.214;2022-11-25T11:32:02;34.20;20.00
34815;DHT22;21030;53.912;15.214;2022-11-25T11:34:39;34.20;20.30
34815;DHT22;21030;53.912;15.214;2022-11-25T11:37:42;34.50;20.20
34815;DHT22;21030;53.912;15.214;2022-11-25T11:40:41;34.10;20.30
34815;DHT22;21030;53.912;15.214;2022-11-25T11:43:51;34.50;20.60
34815;DHT22;21030;53.912;15.214;2022-11-25T11:47:16;35.20;19.90
34815;DHT22;21030;53.912;15.214;2022-11-25T11:58:11;37.90;18.30
34815;DHT22;21030;53.912;15.214;2022-11-25T12:01:18;38.60;17.90
34815;DHT22;21030;53.912;15.214;2022-11-25T12:03:58;38.30;17.40
34815;DHT22;21030;53.912;15.214;2022-11-25T12:06:30;38.60;17.70
34815;DHT22;21030;53.912;15.214;2022-11-25T12:09:04;38.90;17.20
34815;DHT22;21030;53.912;15.214;2022-11-25T12:11:41;37.50;17.20
34815;DHT22;21030;53.912;15.214;2022-11-25T12:16:51;36.50;18.60
34815;DHT22;21030;53.912;15.214;2022-11-25T12:19:32;36.60;20.80
34815;DHT22;21030;53.912;15.214;2022-11-25T12:22:20;36.50;18.70
34815;DHT22;21030;53.912;15.214;2022-11-25T12:27:41;35.60;19.50
34815;DHT22;21030;53.912;15.214;2022-11-25T12:30:18;35.60;19.30
34815;DHT22;21030;53.912;15.214;2022-11-25T12:33:09;35.20;19.40
34815;DHT22;21030;53.912;15.214;2022-11-25T12:35:42;34.90;19.80
34815;DHT22;21030;53.912;15.214;2022-11-25T12:41:31;34.40;19.80
34815;DHT22;21030;53.912;15.214;2022-11-25T12:49:09;34.70;20.30
34815;DHT22;21030;53.912;15.214;2022-11-25T13:04:02;35.00;20.20
34815;DHT22;21030;53.912;15.214;2022-11-25T13:17:42;34.40;20.30
34815;DHT22;21030;53.912;15.214;2022-11-25T13:25:32;34.00;20.70
34815;DHT22;21030;53.912;15.214;2022-11-25T13:28:01;33.90;20.60
34815;DHT22;21030;53.912;15.214;2022-11-25T13:35:48;34.20;20.60
34815;DHT22;21030;53.912;15.214;2022-11-25T13:44:05;34.00;20.30
34815;DHT22;21030;53.912;15.214;2022-11-25T13:49:26;33.80;20.60
34815;DHT22;21030;53.912;15.214;2022-11-25T13:51:53;33.70;20.70
34815;DHT22;21030;53.912;15.214;2022-11-25T13:54:34;33.20;20.60
34815;DHT22;21030;53.912;15.214;2022-11-25T14:10:44;33.40;20.70
34815;DHT22;21030;53.912;15.214;2022-11-25T14:22:31;33.30;21.30
34815;DHT22;21030;53.912;15.214;2022-11-25T14:27:46;33.70;21.00
34815;DHT22;21030;53.912;15.214;2022-11-25T14:30:14;33.90;20.90
34815;DHT22;21030;53.912;15.214;2022-11-25T14:32:43;33.70;20.80
34815;DHT22;21030;53.912;15.214;2022-11-25T14:35:39;33.70;21.10
34815;DHT22;21030;53.912;15.214;2022-11-25T14:38:18;33.30;21.10
34815;DHT22;21030;53.912;15.214;2022-11-25T14:40:53;32.90;21.30
34815;DHT22;21030;53.912;15.214;2022-11-25T14:43:26;32.20;21.30
34815;DHT22;21030;53.912;15.214;2022-11-25T14:46:24;32.00;21.80
34815;DHT22;21030;53.912;15.214;2022-11-25T14:48:56;33.00;21.60
34815;DHT22;21030;53.912;15.214;2022-11-25T14:51:36;33.00;21.20
34815;DHT22;21030;53.912;15.214;2022-11-25T14:54:07;32.90;21.20
34815;DHT22;21030;53.912;15.214;2022-11-25T14:56:35;32.30;21.50
34815;DHT22;21030;53.912;15.214;2022-11-25T14:59:03;32.50;21.40
34815;DHT22;21030;53.912;15.214;2022-11-25T15:01:34;33.10;21.40
34815;DHT22;21030;53.912;15.214;2022-11-25T15:04:20;33.50;21.20
34815;DHT22;21030;53.912;15.214;2022-11-25T15:06:55;33.60;21.10
34815;DHT22;21030;53.912;15.214;2022-11-25T15:11:57;33.70;20.90
34815;DHT22;21030;53.912;15.214;2022-11-25T15:14:28;33.30;21.10
34815;DHT22;21030;53.912;15.214;2022-11-25T15:16:55;33.10;21.10
34815;DHT22;21030;53.912;15.214;2022-11-25T15:19:25;32.80;21.30
34815;DHT22;21030;53.912;15.214;2022-11-25T15:22:01;33.00;21.20
34815;DHT22;21030;53.912;15.214;2022-11-25T15:24:51;32.60;21.30
34815;DHT22;21030;53.912;15.214;2022-11-25T15:27:26;31.80;21.40
34815;DHT22;21030;53.912;15.214;2022-11-25T15:29:55;32.30;21.80
34815;DHT22;21030;53.912;15.214;2022-11-25T15:32:33;32.00;21.70
34815;DHT22;21030;53.912;15.214;2022-11-25T15:35:04;31.50;22.20
34815;DHT22;21030;53.912;15.214;2022-11-25T15:37:32;32.30;22.00
34815;DHT22;21030;53.912;15.214;2022-11-25T15:40:30;32.50;21.50
34815;DHT22;21030;53.912;15.214;2022-11-25T15:42:59;31.80;21.80
34815;DHT22;21030;53.912;15.214;2022-11-25T15:45:44;31.70;21.80
34815;DHT22;21030;53.912;15.214;2022-11-25T15:48:16;31.90;21.90
34815;DHT22;21030;53.912;15.214;2022-11-25T15:50:45;31.70;22.00
34815;DHT22;21030;53.912;15.214;2022-11-25T15:53:23;32.00;21.90
34815;DHT22;21030;53.912;15.214;2022-11-25T15:55:59;32.30;21.70
34815;DHT22;21030;53.912;15.214;2022-11-25T15:58:27;32.70;21.30
34815;DHT22;21030;53.912;15.214;2022-11-25T16:01:15;32.70;21.30
34815;DHT22;21030;53.912;15.214;2022-11-25T16:03:46;32.60;21.50
34815;DHT22;21030;53.912;15.214;2022-11-25T16:06:24;32.70;21.30
34815;DHT22;21030;53.912;15.214;2022-11-25T16:09:00;32.70;21.20
34815;DHT22;21030;53.912;15.214;2022-11-25T16:11:29;32.70;21.20
34815;DHT22;21030;53.912;15.214;2022-11-25T16:14:24;32.70;21.30
34815;DHT22;21030;53.912;15.214;2022-11-25T16:17:01;32.40;21.30
34815;DHT22;21030;53.912;15.214;2022-11-25T16:19:32;32.30;21.70
34815;DHT22;21030;53.912;15.214;2022-11-25T16:22:04;32.60;21.50
34815;DHT22;21030;53.912;15.214;2022-11-25T16:27:02;32.30;21.40
34815;DHT22;21030;53.912;15.214;2022-11-25T16:29:34;32.30;21.50
34815;DHT22;21030;53.912;15.214;2022-11-25T16:32:12;31.50;21.40
34815;DHT22;21030;53.912;15.214;2022-11-25T16:34:40;31.30;22.00
34815;DHT22;21030;53.912;15.214;2022-11-25T16:37:07;31.50;22.20
34815;DHT22;21030;53.912;15.214;2022-11-25T16:39:35;32.20;21.90
34815;DHT22;21030;53.912;15.214;2022-11-25T16:42:04;31.90;21.50
34815;DHT22;21030;53.912;15.214;2022-11-25T16:44:33;31.80;21.70
34815;DHT22;21030;53.912;15.214;2022-11-25T16:47:01;31.60;21.90
34815;DHT22;21030;53.912;15.214;2022-11-25T16:49:29;31.30;22.10
34815;DHT22;21030;53.912;15.214;2022-11-25T16:51:56;30.80;22.20
34815;DHT22;21030;53.912;15.214;2022-11-25T16:54:23;31.10;22.30
34815;DHT22;21030;53.912;15.214;2022-11-25T16:56:53;31.30;22.10
34815;DHT22;21030;53.912;15.214;2022-11-25T16:59:36;31.70;22.00
34815;DHT22;21030;53.912;15.214;2022-11-25T17:02:17;32.00;21.80
34815;DHT22;21030;53.912;15.214;2022-11-25T17:04:45;32.00;21.80
34815;DHT22;21030;53.912;15.214;2022-11-25T17:07:15;32.10;21.60
34815;DHT22;21030;53.912;15.214;2022-11-25T17:09:58;32.00;21.60
34815;DHT22;21030;53.912;15.214;2022-11-25T17:12:28;32.00;21.70
34815;DHT22;21030;53.912;15.214;2022-11-25T17:14:57;32.00;21.60
34815;DHT22;21030;53.912;15.214;2022-11-25T17:17:26;31.60;21.70
34815;DHT22;21030;53.912;15.214;2022-11-25T17:19:54;31.30;22.10
34815;DHT22;21030;53.912;15.214;2022-11-25T17:22:23;31.00;22.20
34815;DHT22;21030;53.912;15.214;2022-11-25T17:24:50;31.00;22.40
34815;DHT22;21030;53.912;15.214;2022-11-25T17:27:24;31.00;22.40
34815;DHT22;21030;53.912;15.214;2022-11-25T17:29:53;31.10;22.30
34815;DHT22;21030;53.912;15.214;2022-11-25T17:32:22;31.20;22.30
34815;DHT22;21030;53.912;15.214;2022-11-25T17:34:49;30.90;22.20
34815;DHT22;21030;53.912;15.214;2022-11-25T17:37:19;30.10;22.40
34815;DHT22;21030;53.912;15.214;2022-11-25T17:39:46;29.70;23.00
34815;DHT22;21030;53.912;15.214;2022-11-25T17:42:15;29.50;23.30
34815;DHT22;21030;53.912;15.214;2022-11-25T17:44:44;29.00;23.60
34815;DHT22;21030;53.912;15.214;2022-11-25T17:47:18;28.30;23.80
34815;DHT22;21030;53.912;15.214;2022-11-25T17:49:45;28.00;24.40
34815;DHT22;21030;53.912;15.214;2022-11-25T17:52:12;29.10;24.30
34815;DHT22;21030;53.912;15.214;2022-11-25T17:54:39;28.40;23.80
34815;DHT22;21030;53.912;15.214;2022-11-25T17:57:11;28.10;24.70
34815;DHT22;21030;53.912;15.214;2022-11-25T17:59:39;28.90;24.60